Airfield :
LOGIN :

Register | Disclaimer

   EN    FR    IT 

 










Legend :    VFR   Marginal VFR   IFR   Intensive IFR   Very Intensive IFR
Visi :
Ceiling :
>= 8 km
>= 3000ft
5 to 8 km
1000 to 3000 ft
1500m to 5 km
500 to 1000 ft
800 to 1500m
200 to 500 ft
< 800m
< 200 ft
Symbols :   Thunderstorms  Fog  Heavy snow  Heavy precipitations  Wind > 20 kt
SIGMETs :     Misc.  Thunderstorms  Icing  Turbulence  Mountain Waves  Volcanic Ashes







- Airport Elevation : 1470 ft
- IATA code : KLU


LOWK - Klagenfurt

CURRENT METAR :
  • 230750Z VRB02KT 4000 BR FEW002 BKN003 05/04 Q1026 BECMG 9999 NSW SCT005

EXPIRED METARs :
  • 230720Z VRB02KT 4000 BR SCT002 04/03 Q1026 BECMG 9999 NSW
  • 230650Z 32003KT 4000 BR SCT002 02/01 Q1026 BECMG 9999 NSW
  • 230620Z 33002KT 9999 FEW002 SCT005 01/01 Q1026 TEMPO BKN005
  • 230550Z 32004KT 9999 FEW002 SCT005 02/01 Q1027 TEMPO BKN005
  • 230520Z 32004KT 9999 FEW004 BKN005 02/01 Q1026 TEMPO SCT005

TAF AMD TAF LOWK
Valid from the 23 at 07:00 until the 24 at 06:00 UTC


230752Z 2307/2406 VRB02KT 9999 FEW050 SCT100 TX14/2314Z TN02/2406Z
TEMPO 2307/2309 3000 BR BKN003
No reported NOTAMs for that airfield.



MET'MAP, your aeronautical weather chart ! - Copyright ORBIFLY December 2007 - Disclaimer

ORBIFLY MET'MAP TEAM :

Programming & Development : Alexandra Zaïnal
Concept & Development : Baudouin d'Aumeries
Co-Development & Prog : Marc-Olivier Méhu
Technical & hardware support : Manuel Goepfert

Contact : metmap@orbifly.com




SOURCES & CREDITS :

   NOAA